Weather observations for the past three days for
Fort Worth, Meacham International Airport
Imperial (Metric)
Date Time (cdt) Wind (mph) Vis. (mi.) Weather Sky Cond. Temperature (ºF) Relative Humidity Wind Chill (°F) Heat Index (°F) Pressure Precipitation (in)
Air Dwpt 6 hour altimeter (in) sea level (mb) 1 hr 3 hr 6 hr
Max. Min.
02 20:53 SE 15 G 23 10.00 Fair CLR 91.9 66.9 44% 95 29.88 1010.6
02 19:53 E 16 10.00 Fair CLR 93 66.9 42% 97 29.86 1010.0
02 18:53 E 12 G 20 10.00 Fair CLR 97 64 100 95 34% 99 29.86 1009.8
02 17:53 NE 13 G 18 10.00 Fair CLR 99 64.9 33% 102 29.85 1009.8
02 16:53 E 12 G 17 10.00 Fair CLR 99 64 32% 102 29.87 1010.2
02 14:53 Vrbl 5 G 21 10.00 Fair CLR 98.1 64.9 34% 101 29.91 1011.6
02 13:53 N 8 10.00 Fair CLR 97 66 36% 101 29.94 1012.6
02 11:53 NE 7 10.00 Fair CLR 93.9 66 40% 97 29.99 1014.5
02 10:53 E 6 10.00 Fair CLR 91 68 47% 95 30 1014.9
02 09:53 Vrbl 3 10.00 Fair CLR 88 69.1 54% 92 30 1014.7
02 08:53 E 7 10.00 Fair CLR 84 69.1 61% 88 30 1014.8
02 07:53 E 5 10.00 Fair CLR 81 69.1 67% 84 29.99 1014.4
02 06:53 E 6 10.00 Fair CLR 80.1 69.1 86 80.1 69% 83 29.98 1013.9
02 05:53 E 6 10.00 Fair CLR 81 68 65% 84 29.98 1013.9
02 04:53 S 3 10.00 Fair CLR 81 68 65% 84 29.97 1013.7
02 02:53 S 10 10.00 Fair CLR 84 68 59% 87 29.98 1014.0
02 01:53 SE 12 10.00 Fair CLR 84.9 68 57% 88 29.98 1014.0
02 00:53 SE 15 10.00 Fair CLR 86 68 98.1 86 55% 89 29.97 1013.6
01 23:53 SE 17 G 25 10.00 Fair CLR 89.1 66.9 48% 92 29.96 1013.3
01 22:53 E 8 10.00 Fair CLR 90 66.9 47% 93 29.95 1012.9
01 20:53 E 8 10.00 Fair CLR 93 66 41% 96 29.91 1011.8
01 19:53 E 9 10.00 Fair CLR 95 64.9 37% 98 29.9 1011.3
01 18:53 E 9 10.00 Fair CLR 97 64 100.9 93.9 34% 99 29.91 1011.6
01 17:53 E 9 10.00 Mostly Cloudy BKN110 97 64 34% 99 29.91 1011.8
01 16:53 E 3 10.00 A Few Clouds FEW110 99 64 32% 102 29.92 1011.9
01 15:53 Calm 10.00 Mostly Cloudy FEW075 BKN110 99 64 32% 102 29.93 1012.5
01 14:53 SE 10 G 24 10.00 A Few Clouds FEW070 FEW110 99 64.9 33% 102 29.95 1013.2
01 13:53 E 10 10.00 A Few Clouds FEW065 FEW100 95 66 39% 98 29.98 1014.0
01 12:53 Vrbl 6 10.00 A Few Clouds FEW060 96.1 66 97 78.1 37% 100 30.01 1014.9
01 11:53 SE 6 10.00 Fair CLR 93.9 66.9 41% 98 30.03 1015.8
01 10:53 S 7 10.00 Fair CLR 91.9 66.9 44% 95 30.03 1015.9
01 09:53 Vrbl 6 10.00 Fair CLR 88 68 52% 92 30.04 1016.0
01 07:53 SE 6 10.00 Fair CLR 81 68 65% 84 30.03 1015.6
01 06:53 Calm 10.00 Fair CLR 78.1 66.9 87.1 78.1 69% 80 30 1014.9
01 05:53 S 5 10.00 Fair CLR 81 68 65% 84 30 1014.7
01 04:53 S 6 10.00 Fair CLR 82.9 68 61% 86 29.99 1014.5
01 03:53 S 9 10.00 A Few Clouds FEW080 84 66.9 57% 87 30 1014.6
01 02:53 S 9 10.00 A Few Clouds FEW085 84.9 64 50% 86 29.99 1014.4
01 01:53 SE 7 10.00 Mostly Cloudy BKN085 84.9 60.1 43% 85 29.98 1014.1
01 00:53 E 7 10.00 Fair CLR 86 59 97 86 40% 85 29.97 1013.7
31 23:53 SE 6 10.00 Fair CLR 87.1 59 39% 86 29.96 1013.3
31 22:53 SE 6 10.00 Fair CLR 88 59 38% 87 29.96 1013.2
31 21:53 SE 7 10.00 Fair CLR 90 59 35% 89 29.95 1013.0
31 20:53 SE 7 10.00 Fair CLR 91 60.1 35% 91 29.93 1012.4
31 18:53 SE 14 10.00 Fair CLR 97 59 102 97 28% 97 29.92 1012.0
31 17:53 SE 14 10.00 Mostly Cloudy BKN100 97 59 28% 97 29.92 1012.0
31 16:53 S 10 10.00 Partly Cloudy FEW090 SCT110 100 59 26% 100 29.93 1012.3
31 15:53 SE 10 G 23 10.00 Partly Cloudy SCT100 100.9 59 25% 101 29.95 1013.0
31 14:53 SE 15 G 23 10.00 A Few Clouds FEW095 99 60.1 28% 99 29.97 1013.6
31 13:53 SE 15 G 23 10.00 Partly Cloudy SCT080 98.1 61 29% 99 29.99 1014.3
31 12:53 SE 12 G 24 10.00 Fair CLR 98.1 62.1 98.1 78.1 31% 99 30.02 1015.3
31 11:53 S 9 10.00 Fair CLR 95 62.1 34% 96 30.03 1015.9
31 10:53 S 14 G 21 10.00 Fair CLR 91.9 63 38% 93 30.04 1016.1
31 09:53 SW 6 10.00 Fair CLR 87.1 68 53% 91 30.03 1015.9
31 08:53 S 8 10.00 Fair CLR 84.9 68 57% 88 30.03 1015.6
31 07:53 S 7 10.00 Fair CLR 80.1 69.1 69% 83 30 1014.8
31 06:53 S 5 10.00 Fair CLR 79 68 87.1 78.1 69% 81 29.98 1014.1
31 05:53 S 6 10.00 Fair CLR 80.1 66.9 64% 82 29.97 1013.6
31 04:53 S 7 10.00 Fair CLR 81 66.9 62% 83 29.97 1013.6
31 03:53 S 9 10.00 Fair CLR 82.9 66 57% 85 29.96 1013.2
31 02:53 S 13 G 22 10.00 Fair CLR 84.9 66 53% 87 29.96 1013.1
31 01:53 S 12 G 18 10.00 Fair CLR 86 63 46% 87 29.95 1013.0
31 00:53 S 6 10.00 Fair CLR 84.9 61 98.1 84.9 45% 85 29.95 1013.1
30 23:53 S 7 10.00 Fair CLR 87.1 60.1 40% 87 29.95 1012.9
30 22:53 SE 6 10.00 Fair CLR 89.1 60.1 38% 89 29.94 1012.8
30 21:53 S 8 10.00 A Few Clouds FEW085 89.1 59 36% 88 29.93 1012.3
Date Time (cdt) Wind (mph) Vis. (mi.) Weather Sky Cond. Air Dwpt Max. Min. Relative Humidity Wind Chill (°F) Heat Index (°F) altimeter (in) sea level (mb) 1 hr 3 hr 6 hr
6 hour
Temperature (ºF) Pressure Precipitation (in)